Time;durP1;ratioP1;P1;durP2;ratioP2;P2;SDS_P1;SDS_P2;PMS_P1;PMS_P2;Temp;Humidity;BMP_temperature;BMP_pressure;BME280_temperature;BME280_humidity;BME280_pressure;Samples;Min_cycle;Max_cycle;Signal;HPM_P1;HPM_P2
2023/01/08 00:00:00;;;;;;;0.9;0.9;;;;;;;10.1;100.0;100120;;;;
2023/01/08 00:01:08;;;;;;;0.9;0.9;;;;;;;10.1;100.0;100120;;;;
2023/01/08 00:02:00;;;;;;;0.9;0.9;;;;;;;10.1;100.0;100120;;;;
2023/01/08 00:03:00;;;;;;;0.9;0.9;;;;;;;10.1;100.0;100120;;;;
2023/01/08 00:04:01;;;;;;;0.9;0.9;;;;;;;10.1;100.0;100120;;;;
2023/01/08 00:05:00;;;;;;;0.9;0.9;;;;;;;10.1;100.0;100120;;;;
2023/01/08 00:06:01;;;;;;;0.7;0.7;;;;;;;10.1;100.0;100120;;;;
2023/01/08 00:07:00;;;;;;;0.7;0.7;;;;;;;10.1;100.0;100120;;;;
2023/01/08 00:08:00;;;;;;;0.7;0.7;;;;;;;10.0;100.0;100120;;;;
2023/01/08 00:09:00;;;;;;;0.7;0.7;;;;;;;10.0;100.0;100120;;;;
2023/01/08 00:10:00;;;;;;;0.7;0.7;;;;;;;10.0;100.0;100120;;;;
2023/01/08 00:11:00;;;;;;;0.7;0.7;;;;;;;10.0;100.0;100120;;;;
2023/01/08 00:12:00;;;;;;;0.7;0.7;;;;;;;10.0;100.0;100120;;;;
2023/01/08 00:13:00;;;;;;;0.7;0.7;;;;;;;10.0;100.0;100120;;;;
2023/01/08 00:14:00;;;;;;;0.7;0.7;;;;;;;9.9;100.0;100120;;;;
2023/01/08 00:15:00;;;;;;;0.7;0.7;;;;;;;9.9;100.0;100120;;;;
2023/01/08 00:16:04;;;;;;;0.7;0.7;;;;;;;9.9;100.0;100120;;;;
2023/01/08 00:17:01;;;;;;;0.7;0.7;;;;;;;9.9;100.0;100120;;;;
2023/01/08 00:18:01;;;;;;;0.7;0.7;;;;;;;9.9;100.0;100120;;;;
2023/01/08 00:19:00;;;;;;;0.7;0.7;;;;;;;9.9;100.0;100120;;;;
2023/01/08 00:20:00;;;;;;;0.7;0.7;;;;;;;10.0;100.0;100120;;;;
2023/01/08 00:21:00;;;;;;;0.7;0.7;;;;;;;10.0;100.0;100120;;;;
2023/01/08 00:22:00;;;;;;;0.7;0.7;;;;;;;10.0;100.0;100120;;;;
2023/01/08 00:23:00;;;;;;;0.7;0.7;;;;;;;10.0;100.0;100120;;;;
2023/01/08 00:24:00;;;;;;;0.7;0.7;;;;;;;10.1;100.0;100120;;;;
2023/01/08 00:25:00;;;;;;;0.7;0.7;;;;;;;10.1;100.0;100120;;;;
2023/01/08 00:26:01;;;;;;;1.0;1.0;;;;;;;10.0;100.0;100120;;;;
2023/01/08 00:27:00;;;;;;;1.0;1.0;;;;;;;10.0;100.0;100120;;;;
2023/01/08 00:28:00;;;;;;;1.0;1.0;;;;;;;10.0;100.0;100120;;;;
2023/01/08 00:29:00;;;;;;;1.0;1.0;;;;;;;10.0;100.0;100120;;;;
2023/01/08 00:30:00;;;;;;;1.0;1.0;;;;;;;10.1;100.0;100110;;;;
2023/01/08 00:31:04;;;;;;;1.0;1.0;;;;;;;10.1;100.0;100110;;;;
2023/01/08 00:32:00;;;;;;;1.0;1.0;;;;;;;10.1;100.0;100110;;;;
2023/01/08 00:33:00;;;;;;;1.0;1.0;;;;;;;10.1;100.0;100110;;;;
2023/01/08 00:34:00;;;;;;;1.0;1.0;;;;;;;10.0;100.0;100100;;;;
2023/01/08 00:35:00;;;;;;;1.0;1.0;;;;;;;10.0;100.0;100100;;;;
2023/01/08 00:36:05;;;;;;;1.0;1.0;;;;;;;10.0;100.0;100100;;;;
2023/01/08 00:37:00;;;;;;;1.0;1.0;;;;;;;10.0;100.0;100100;;;;
2023/01/08 00:38:00;;;;;;;1.0;1.0;;;;;;;10.0;100.0;100100;;;;
2023/01/08 00:39:00;;;;;;;1.0;1.0;;;;;;;10.0;100.0;100100;;;;
2023/01/08 00:40:00;;;;;;;1.0;1.0;;;;;;;10.0;100.0;100100;;;;
2023/01/08 00:41:00;;;;;;;1.0;1.0;;;;;;;10.0;100.0;100100;;;;
2023/01/08 00:42:00;;;;;;;1.0;1.0;;;;;;;10.1;100.0;100090;;;;
2023/01/08 00:43:00;;;;;;;1.0;1.0;;;;;;;10.1;100.0;100090;;;;
2023/01/08 00:44:00;;;;;;;1.0;1.0;;;;;;;10.0;100.0;100090;;;;
2023/01/08 00:45:00;;;;;;;0.9;0.9;;;;;;;10.0;100.0;100090;;;;
2023/01/08 00:46:00;;;;;;;0.9;0.9;;;;;;;9.9;100.0;100080;;;;
2023/01/08 00:47:00;;;;;;;0.9;0.9;;;;;;;9.9;100.0;100080;;;;
2023/01/08 00:48:00;;;;;;;0.9;0.9;;;;;;;9.9;100.0;100080;;;;
2023/01/08 00:49:00;;;;;;;0.9;0.9;;;;;;;9.9;100.0;100080;;;;
2023/01/08 00:50:00;;;;;;;0.9;0.9;;;;;;;9.9;100.0;100080;;;;
2023/01/08 00:51:00;;;;;;;0.9;0.9;;;;;;;9.9;100.0;100080;;;;
2023/01/08 00:52:00;;;;;;;0.9;0.9;;;;;;;9.9;100.0;100080;;;;
2023/01/08 00:53:01;;;;;;;0.9;0.9;;;;;;;9.9;100.0;100080;;;;
2023/01/08 00:54:00;;;;;;;0.9;0.9;;;;;;;9.9;100.0;100070;;;;
2023/01/08 00:55:00;;;;;;;0.9;0.9;;;;;;;9.9;100.0;100070;;;;
2023/01/08 00:56:00;;;;;;;0.9;0.9;;;;;;;9.9;100.0;100080;;;;
2023/01/08 00:57:00;;;;;;;0.9;0.9;;;;;;;9.9;100.0;100080;;;;
2023/01/08 00:58:00;;;;;;;0.9;0.9;;;;;;;9.9;100.0;100070;;;;
2023/01/08 00:59:00;;;;;;;0.9;0.9;;;;;;;9.9;100.0;100070;;;;
2023/01/08 01:00:00;;;;;;;0.9;0.9;;;;;;;9.9;100.0;100070;;;;
2023/01/08 01:01:01;;;;;;;0.9;0.9;;;;;;;9.9;100.0;100070;;;;
2023/01/08 01:02:00;;;;;;;0.9;0.9;;;;;;;9.9;100.0;100070;;;;
2023/01/08 01:03:00;;;;;;;0.9;0.9;;;;;;;9.9;100.0;100070;;;;
2023/01/08 01:04:00;;;;;;;0.9;0.9;;;;;;;9.9;100.0;100070;;;;
2023/01/08 01:05:00;;;;;;;0.8;0.8;;;;;;;9.9;100.0;100070;;;;
2023/01/08 01:06:04;;;;;;;0.8;0.8;;;;;;;9.8;100.0;100070;;;;
2023/01/08 01:07:00;;;;;;;0.8;0.8;;;;;;;9.8;100.0;100070;;;;
2023/01/08 01:08:00;;;;;;;0.8;0.8;;;;;;;9.9;100.0;100070;;;;
2023/01/08 01:09:00;;;;;;;0.8;0.8;;;;;;;9.9;100.0;100070;;;;
2023/01/08 01:10:00;;;;;;;0.8;0.8;;;;;;;9.9;100.0;100060;;;;
2023/01/08 01:11:04;;;;;;;0.8;0.8;;;;;;;9.9;100.0;100060;;;;
2023/01/08 01:12:00;;;;;;;0.8;0.8;;;;;;;9.9;100.0;100070;;;;
2023/01/08 01:13:00;;;;;;;0.8;0.8;;;;;;;9.9;100.0;100070;;;;
2023/01/08 01:14:00;;;;;;;0.8;0.8;;;;;;;9.9;100.0;100060;;;;
2023/01/08 01:15:00;;;;;;;0.8;0.8;;;;;;;9.9;100.0;100060;;;;
2023/01/08 01:16:01;;;;;;;0.8;0.8;;;;;;;9.9;100.0;100060;;;;
2023/01/08 01:17:00;;;;;;;0.8;0.8;;;;;;;9.9;100.0;100060;;;;
2023/01/08 01:18:00;;;;;;;0.8;0.8;;;;;;;9.8;100.0;100050;;;;
2023/01/08 01:19:00;;;;;;;0.8;0.8;;;;;;;9.8;100.0;100050;;;;
2023/01/08 01:20:00;;;;;;;0.8;0.8;;;;;;;9.8;100.0;100060;;;;
2023/01/08 01:21:00;;;;;;;0.8;0.8;;;;;;;9.8;100.0;100060;;;;
2023/01/08 01:22:00;;;;;;;0.8;0.8;;;;;;;9.9;100.0;100050;;;;
2023/01/08 01:23:00;;;;;;;0.8;0.8;;;;;;;9.9;100.0;100050;;;;
2023/01/08 01:24:02;;;;;;;0.8;0.8;;;;;;;9.9;100.0;100050;;;;
2023/01/08 01:25:00;;;;;;;0.9;0.9;;;;;;;9.9;100.0;100050;;;;
2023/01/08 01:26:00;;;;;;;0.9;0.9;;;;;;;9.9;100.0;100050;;;;
2023/01/08 01:27:00;;;;;;;0.9;0.9;;;;;;;9.9;100.0;100050;;;;
2023/01/08 01:28:00;;;;;;;0.9;0.9;;;;;;;9.9;100.0;100050;;;;
2023/01/08 01:29:00;;;;;;;0.9;0.9;;;;;;;9.9;100.0;100050;;;;
2023/01/08 01:30:00;;;;;;;0.9;0.9;;;;;;;9.9;100.0;100050;;;;
2023/01/08 01:31:02;;;;;;;0.9;0.9;;;;;;;9.9;100.0;100050;;;;
2023/01/08 01:32:00;;;;;;;0.9;0.9;;;;;;;9.9;100.0;100050;;;;
2023/01/08 01:33:00;;;;;;;0.9;0.9;;;;;;;9.9;100.0;100050;;;;
2023/01/08 01:34:00;;;;;;;0.9;0.9;;;;;;;9.9;100.0;100050;;;;
2023/01/08 01:35:00;;;;;;;0.9;0.9;;;;;;;9.9;100.0;100050;;;;
2023/01/08 01:36:01;;;;;;;0.9;0.9;;;;;;;9.9;100.0;100040;;;;
2023/01/08 01:37:00;;;;;;;0.9;0.9;;;;;;;9.9;100.0;100040;;;;
2023/01/08 01:38:00;;;;;;;0.9;0.9;;;;;;;9.8;100.0;100040;;;;
2023/01/08 01:39:00;;;;;;;0.9;0.9;;;;;;;9.8;100.0;100040;;;;
2023/01/08 01:40:00;;;;;;;0.9;0.9;;;;;;;9.8;100.0;100040;;;;
2023/01/08 01:41:00;;;;;;;0.9;0.9;;;;;;;9.8;100.0;100040;;;;
2023/01/08 01:42:00;;;;;;;0.9;0.9;;;;;;;9.9;100.0;100040;;;;
2023/01/08 01:43:00;;;;;;;0.9;0.9;;;;;;;9.9;100.0;100040;;;;
2023/01/08 01:44:10;;;;;;;0.9;0.9;;;;;;;9.8;100.0;100040;;;;
2023/01/08 01:45:00;;;;;;;1.0;1.0;;;;;;;9.8;100.0;100040;;;;
2023/01/08 01:46:01;;;;;;;1.0;1.0;;;;;;;9.9;100.0;100050;;;;
2023/01/08 01:47:04;;;;;;;1.0;1.0;;;;;;;9.9;100.0;100050;;;;
2023/01/08 01:48:02;;;;;;;1.0;1.0;;;;;;;9.9;100.0;100050;;;;
2023/01/08 01:49:05;;;;;;;1.0;1.0;;;;;;;9.9;100.0;100050;;;;
2023/01/08 01:50:00;;;;;;;1.0;1.0;;;;;;;9.9;100.0;100050;;;;
2023/01/08 01:51:00;;;;;;;1.0;1.0;;;;;;;9.9;100.0;100050;;;;
2023/01/08 01:52:03;;;;;;;1.0;1.0;;;;;;;10.0;100.0;100050;;;;
2023/01/08 01:53:02;;;;;;;1.0;1.0;;;;;;;10.0;100.0;100050;;;;
2023/01/08 01:54:02;;;;;;;1.0;1.0;;;;;;;9.9;100.0;100060;;;;
2023/01/08 01:55:00;;;;;;;1.0;1.0;;;;;;;9.9;100.0;100060;;;;
2023/01/08 01:56:01;;;;;;;1.0;1.0;;;;;;;9.9;100.0;100060;;;;
2023/01/08 01:57:00;;;;;;;1.0;1.0;;;;;;;9.9;100.0;100060;;;;
2023/01/08 01:58:03;;;;;;;1.0;1.0;;;;;;;9.8;100.0;100050;;;;
2023/01/08 01:59:00;;;;;;;1.0;1.0;;;;;;;9.8;100.0;100050;;;;
2023/01/08 02:00:03;;;;;;;1.0;1.0;;;;;;;9.9;100.0;100060;;;;
2023/01/08 02:01:03;;;;;;;1.0;1.0;;;;;;;9.9;100.0;100060;;;;
2023/01/08 02:02:01;;;;;;;1.0;1.0;;;;;;;9.9;100.0;100060;;;;
2023/01/08 02:03:00;;;;;;;1.0;1.0;;;;;;;9.9;100.0;100060;;;;
2023/01/08 02:04:00;;;;;;;1.0;1.0;;;;;;;9.9;100.0;100060;;;;
2023/01/08 02:05:01;;;;;;;0.8;0.8;;;;;;;9.9;100.0;100060;;;;
2023/01/08 02:06:07;;;;;;;0.8;0.8;;;;;;;10.0;100.0;100060;;;;
2023/01/08 02:07:04;;;;;;;0.8;0.8;;;;;;;10.0;100.0;100060;;;;
2023/01/08 02:08:04;;;;;;;0.8;0.8;;;;;;;9.9;100.0;100070;;;;
2023/01/08 02:09:10;;;;;;;0.8;0.8;;;;;;;9.9;100.0;100070;;;;
2023/01/08 02:10:10;;;;;;;0.8;0.8;;;;;;;9.9;100.0;100060;;;;
2023/01/08 02:11:05;;;;;;;0.8;0.8;;;;;;;9.9;100.0;100060;;;;
2023/01/08 02:13:03;;;;;;;0.8;0.8;;;;;;;9.7;100.0;100070;;;;
2023/01/08 02:14:05;;;;;;;0.8;0.8;;;;;;;9.6;100.0;100060;;;;
2023/01/08 02:15:01;;;;;;;0.8;0.8;;;;;;;9.6;100.0;100060;;;;
2023/01/08 02:16:07;;;;;;;0.8;0.8;;;;;;;9.6;100.0;100070;;;;
2023/01/08 02:17:05;;;;;;;0.8;0.8;;;;;;;9.6;100.0;100070;;;;
2023/01/08 02:18:10;;;;;;;0.8;0.8;;;;;;;9.5;100.0;100060;;;;
2023/01/08 02:19:06;;;;;;;0.8;0.8;;;;;;;9.5;100.0;100060;;;;
2023/01/08 02:20:07;;;;;;;0.8;0.8;;;;;;;9.5;100.0;100070;;;;
2023/01/08 02:21:02;;;;;;;0.8;0.8;;;;;;;9.5;100.0;100070;;;;
2023/01/08 02:22:08;;;;;;;0.8;0.8;;;;;;;9.5;100.0;100050;;;;
2023/01/08 02:23:10;;;;;;;0.8;0.8;;;;;;;9.5;100.0;100050;;;;
2023/01/08 02:24:04;;;;;;;0.8;0.8;;;;;;;9.4;100.0;100060;;;;
2023/01/08 02:25:06;;;;;;;1.0;1.0;;;;;;;9.4;100.0;100060;;;;
2023/01/08 02:26:06;;;;;;;1.0;1.0;;;;;;;9.4;100.0;100060;;;;
2023/01/08 02:27:03;;;;;;;1.0;1.0;;;;;;;9.4;100.0;100060;;;;
2023/01/08 02:28:03;;;;;;;1.0;1.0;;;;;;;9.4;100.0;100050;;;;
2023/01/08 02:29:08;;;;;;;1.0;1.0;;;;;;;9.4;100.0;100050;;;;
2023/01/08 02:30:02;;;;;;;1.0;1.0;;;;;;;9.3;100.0;100050;;;;
2023/01/08 02:31:00;;;;;;;1.0;1.0;;;;;;;9.3;100.0;100050;;;;
2023/01/08 02:32:00;;;;;;;1.0;1.0;;;;;;;9.3;100.0;100040;;;;
2023/01/08 02:33:00;;;;;;;1.0;1.0;;;;;;;9.3;100.0;100040;;;;
2023/01/08 02:34:00;;;;;;;1.0;1.0;;;;;;;9.2;100.0;100040;;;;
2023/01/08 02:35:00;;;;;;;1.0;1.0;;;;;;;9.2;100.0;100040;;;;
2023/01/08 02:36:10;;;;;;;1.0;1.0;;;;;;;9.2;100.0;100040;;;;
2023/01/08 02:37:00;;;;;;;1.0;1.0;;;;;;;9.2;100.0;100040;;;;
2023/01/08 02:38:00;;;;;;;1.0;1.0;;;;;;;9.2;100.0;100030;;;;
2023/01/08 02:39:05;;;;;;;1.0;1.0;;;;;;;9.2;100.0;100030;;;;
2023/01/08 02:40:10;;;;;;;1.0;1.0;;;;;;;9.1;100.0;100030;;;;
2023/01/08 02:41:04;;;;;;;1.0;1.0;;;;;;;9.1;100.0;100030;;;;
2023/01/08 02:42:10;;;;;;;1.0;1.0;;;;;;;9.1;100.0;100030;;;;
2023/01/08 02:43:05;;;;;;;1.0;1.0;;;;;;;9.1;100.0;100030;;;;
2023/01/08 02:44:01;;;;;;;1.0;1.0;;;;;;;9.0;100.0;100030;;;;
2023/01/08 02:45:00;;;;;;;0.9;0.9;;;;;;;9.0;100.0;100030;;;;
2023/01/08 02:46:01;;;;;;;0.9;0.9;;;;;;;9.1;100.0;100020;;;;
2023/01/08 02:47:03;;;;;;;0.9;0.9;;;;;;;9.1;100.0;100020;;;;
2023/01/08 02:48:04;;;;;;;0.9;0.9;;;;;;;9.1;100.0;100020;;;;
2023/01/08 02:49:03;;;;;;;0.9;0.9;;;;;;;9.1;100.0;100020;;;;
2023/01/08 02:50:07;;;;;;;0.9;0.9;;;;;;;8.9;100.0;100020;;;;
2023/01/08 02:51:07;;;;;;;0.9;0.9;;;;;;;8.9;100.0;100020;;;;
2023/01/08 02:52:01;;;;;;;0.9;0.9;;;;;;;8.9;100.0;100020;;;;
2023/01/08 02:53:05;;;;;;;0.9;0.9;;;;;;;8.9;100.0;100020;;;;
2023/01/08 02:54:02;;;;;;;0.9;0.9;;;;;;;9.0;100.0;100020;;;;
2023/01/08 02:55:01;;;;;;;0.9;0.9;;;;;;;9.0;100.0;100020;;;;
2023/01/08 02:56:03;;;;;;;0.9;0.9;;;;;;;8.9;100.0;100030;;;;
2023/01/08 02:57:03;;;;;;;0.9;0.9;;;;;;;8.9;100.0;100030;;;;
2023/01/08 02:58:01;;;;;;;0.9;0.9;;;;;;;8.9;100.0;100030;;;;
2023/01/08 02:59:01;;;;;;;0.9;0.9;;;;;;;8.9;100.0;100030;;;;
2023/01/08 03:00:00;;;;;;;0.9;0.9;;;;;;;8.8;100.0;100030;;;;
2023/01/08 03:01:02;;;;;;;0.9;0.9;;;;;;;8.8;100.0;100030;;;;
2023/01/08 03:02:02;;;;;;;0.9;0.9;;;;;;;8.9;100.0;100020;;;;
2023/01/08 03:03:10;;;;;;;0.9;0.9;;;;;;;8.9;100.0;100020;;;;
2023/01/08 03:04:05;;;;;;;0.9;0.9;;;;;;;8.8;100.0;100030;;;;
2023/01/08 03:05:04;;;;;;;1.1;1.1;;;;;;;8.8;100.0;100030;;;;
2023/01/08 03:06:04;;;;;;;1.1;1.1;;;;;;;8.7;100.0;100030;;;;
2023/01/08 03:07:01;;;;;;;1.1;1.1;;;;;;;8.7;100.0;100030;;;;
2023/01/08 03:08:01;;;;;;;1.1;1.1;;;;;;;8.7;100.0;100030;;;;
2023/01/08 03:09:00;;;;;;;1.1;1.1;;;;;;;8.7;100.0;100030;;;;
2023/01/08 03:10:00;;;;;;;1.1;1.1;;;;;;;8.7;100.0;100040;;;;
2023/01/08 03:11:03;;;;;;;1.1;1.1;;;;;;;8.7;100.0;100040;;;;
2023/01/08 03:12:03;;;;;;;1.1;1.1;;;;;;;8.6;100.0;100040;;;;
2023/01/08 03:13:02;;;;;;;1.1;1.1;;;;;;;8.6;100.0;100040;;;;
2023/01/08 03:14:06;;;;;;;1.1;1.1;;;;;;;8.6;100.0;100040;;;;
2023/01/08 03:15:05;;;;;;;1.1;1.1;;;;;;;8.6;100.0;100040;;;;
2023/01/08 03:16:03;;;;;;;1.1;1.1;;;;;;;8.6;100.0;100040;;;;
2023/01/08 03:17:05;;;;;;;1.1;1.1;;;;;;;8.6;100.0;100040;;;;
2023/01/08 03:18:04;;;;;;;1.1;1.1;;;;;;;8.4;100.0;100030;;;;
2023/01/08 03:19:04;;;;;;;1.1;1.1;;;;;;;8.4;100.0;100030;;;;
2023/01/08 03:20:09;;;;;;;1.1;1.1;;;;;;;8.4;100.0;100030;;;;
2023/01/08 03:21:02;;;;;;;1.1;1.1;;;;;;;8.4;100.0;100030;;;;
2023/01/08 03:22:01;;;;;;;1.1;1.1;;;;;;;8.4;100.0;100030;;;;
2023/01/08 03:23:01;;;;;;;1.1;1.1;;;;;;;8.4;100.0;100030;;;;
2023/01/08 03:24:01;;;;;;;1.1;1.1;;;;;;;8.5;100.0;100020;;;;
2023/01/08 03:25:01;;;;;;;1.1;1.1;;;;;;;8.5;100.0;100020;;;;
2023/01/08 03:26:01;;;;;;;1.1;1.1;;;;;;;8.4;100.0;100020;;;;
2023/01/08 03:27:03;;;;;;;1.1;1.1;;;;;;;8.4;100.0;100020;;;;
2023/01/08 03:28:02;;;;;;;1.1;1.1;;;;;;;8.5;100.0;100010;;;;
2023/01/08 03:29:01;;;;;;;1.1;1.1;;;;;;;8.5;100.0;100010;;;;
2023/01/08 03:30:01;;;;;;;1.1;1.1;;;;;;;8.6;100.0;100020;;;;
2023/01/08 03:31:01;;;;;;;1.1;1.1;;;;;;;8.6;100.0;100020;;;;
2023/01/08 03:32:02;;;;;;;1.1;1.1;;;;;;;8.6;100.0;100020;;;;
2023/01/08 03:33:01;;;;;;;1.1;1.1;;;;;;;8.6;100.0;100020;;;;
2023/01/08 03:34:01;;;;;;;1.1;1.1;;;;;;;8.7;100.0;100020;;;;
2023/01/08 03:35:01;;;;;;;1.1;1.1;;;;;;;8.7;100.0;100020;;;;
2023/01/08 03:36:02;;;;;;;1.1;1.1;;;;;;;8.6;100.0;100020;;;;
2023/01/08 03:37:02;;;;;;;1.1;1.1;;;;;;;8.6;100.0;100020;;;;
2023/01/08 03:38:04;;;;;;;1.1;1.1;;;;;;;8.6;100.0;100030;;;;
2023/01/08 03:39:04;;;;;;;1.1;1.1;;;;;;;8.6;100.0;100030;;;;
2023/01/08 03:40:00;;;;;;;1.1;1.1;;;;;;;8.7;100.0;100020;;;;
2023/01/08 03:41:03;;;;;;;1.1;1.1;;;;;;;8.7;100.0;100020;;;;
2023/01/08 03:42:01;;;;;;;1.1;1.1;;;;;;;8.6;100.0;100020;;;;
2023/01/08 03:43:00;;;;;;;1.1;1.1;;;;;;;8.6;100.0;100020;;;;
2023/01/08 03:44:00;;;;;;;1.1;1.1;;;;;;;8.6;100.0;100020;;;;
2023/01/08 03:45:01;;;;;;;1.0;1.0;;;;;;;8.6;100.0;100020;;;;
2023/01/08 03:46:02;;;;;;;1.0;1.0;;;;;;;8.7;100.0;100020;;;;
2023/01/08 03:47:01;;;;;;;1.0;1.0;;;;;;;8.7;100.0;100020;;;;
2023/01/08 03:48:02;;;;;;;1.0;1.0;;;;;;;8.6;100.0;100020;;;;
2023/01/08 03:49:01;;;;;;;1.0;1.0;;;;;;;8.6;100.0;100020;;;;
2023/01/08 03:50:01;;;;;;;1.0;1.0;;;;;;;8.5;100.0;100010;;;;
2023/01/08 03:51:00;;;;;;;1.0;1.0;;;;;;;8.5;100.0;100010;;;;
2023/01/08 03:52:00;;;;;;;1.0;1.0;;;;;;;8.6;100.0;100010;;;;
2023/01/08 03:53:01;;;;;;;1.0;1.0;;;;;;;8.6;100.0;100010;;;;
2023/01/08 03:54:00;;;;;;;1.0;1.0;;;;;;;8.6;100.0;100010;;;;
2023/01/08 03:55:00;;;;;;;1.0;1.0;;;;;;;8.6;100.0;100010;;;;
2023/01/08 03:56:00;;;;;;;1.0;1.0;;;;;;;8.6;100.0;100010;;;;
2023/01/08 03:57:00;;;;;;;1.0;1.0;;;;;;;8.6;100.0;100010;;;;
2023/01/08 03:58:00;;;;;;;1.0;1.0;;;;;;;8.5;100.0;100010;;;;
2023/01/08 03:59:00;;;;;;;1.0;1.0;;;;;;;8.5;100.0;100010;;;;
2023/01/08 04:00:00;;;;;;;1.0;1.0;;;;;;;8.5;100.0;100000;;;;
2023/01/08 04:01:00;;;;;;;1.0;1.0;;;;;;;8.5;100.0;100000;;;;
2023/01/08 04:02:00;;;;;;;1.0;1.0;;;;;;;8.6;100.0;100000;;;;
2023/01/08 04:03:00;;;;;;;1.0;1.0;;;;;;;8.6;100.0;100000;;;;
2023/01/08 04:04:00;;;;;;;1.0;1.0;;;;;;;8.7;100.0;100000;;;;
2023/01/08 04:05:00;;;;;;;0.9;0.9;;;;;;;8.7;100.0;100000;;;;
2023/01/08 04:06:00;;;;;;;0.9;0.9;;;;;;;8.6;100.0;100000;;;;
2023/01/08 04:07:00;;;;;;;0.9;0.9;;;;;;;8.6;100.0;100000;;;;
2023/01/08 04:08:00;;;;;;;0.9;0.9;;;;;;;8.6;100.0;100000;;;;
2023/01/08 04:09:00;;;;;;;0.9;0.9;;;;;;;8.6;100.0;100000;;;;
2023/01/08 04:10:00;;;;;;;0.9;0.9;;;;;;;8.6;100.0;100000;;;;
2023/01/08 04:11:00;;;;;;;0.9;0.9;;;;;;;8.6;100.0;100000;;;;
2023/01/08 04:12:00;;;;;;;0.9;0.9;;;;;;;8.6;100.0;99990;;;;
2023/01/08 04:13:00;;;;;;;0.9;0.9;;;;;;;8.6;100.0;99990;;;;
2023/01/08 04:14:00;;;;;;;0.9;0.9;;;;;;;8.6;100.0;99990;;;;
2023/01/08 04:15:00;;;;;;;0.9;0.9;;;;;;;8.6;100.0;99990;;;;
2023/01/08 04:16:00;;;;;;;0.9;0.9;;;;;;;8.6;100.0;99990;;;;
2023/01/08 04:17:00;;;;;;;0.9;0.9;;;;;;;8.6;100.0;99990;;;;
2023/01/08 04:18:00;;;;;;;0.9;0.9;;;;;;;8.6;100.0;99990;;;;
2023/01/08 04:19:00;;;;;;;0.9;0.9;;;;;;;8.6;100.0;99990;;;;
2023/01/08 04:20:00;;;;;;;0.9;0.9;;;;;;;8.6;100.0;99990;;;;
2023/01/08 04:21:00;;;;;;;0.9;0.9;;;;;;;8.6;100.0;99990;;;;
2023/01/08 04:22:00;;;;;;;0.9;0.9;;;;;;;8.6;100.0;99990;;;;
2023/01/08 04:23:00;;;;;;;0.9;0.9;;;;;;;8.6;100.0;99990;;;;
2023/01/08 04:24:00;;;;;;;0.9;0.9;;;;;;;8.7;100.0;99990;;;;
2023/01/08 04:25:00;;;;;;;1.0;1.0;;;;;;;8.7;100.0;99990;;;;
2023/01/08 04:26:03;;;;;;;1.0;1.0;;;;;;;8.6;100.0;99980;;;;
2023/01/08 04:27:00;;;;;;;1.0;1.0;;;;;;;8.6;100.0;99980;;;;
2023/01/08 04:28:00;;;;;;;1.0;1.0;;;;;;;8.7;100.0;99980;;;;
2023/01/08 04:29:02;;;;;;;1.0;1.0;;;;;;;8.7;100.0;99980;;;;
2023/01/08 04:30:00;;;;;;;1.0;1.0;;;;;;;8.7;100.0;99970;;;;
2023/01/08 04:31:04;;;;;;;1.0;1.0;;;;;;;8.7;100.0;99970;;;;
2023/01/08 04:32:00;;;;;;;1.0;1.0;;;;;;;8.6;100.0;99970;;;;
2023/01/08 04:33:00;;;;;;;1.0;1.0;;;;;;;8.6;100.0;99970;;;;
2023/01/08 04:34:00;;;;;;;1.0;1.0;;;;;;;8.6;100.0;99960;;;;
2023/01/08 04:35:00;;;;;;;1.0;1.0;;;;;;;8.6;100.0;99960;;;;
2023/01/08 04:36:01;;;;;;;1.0;1.0;;;;;;;8.6;100.0;99970;;;;
2023/01/08 04:37:01;;;;;;;1.0;1.0;;;;;;;8.6;100.0;99970;;;;
2023/01/08 04:38:00;;;;;;;1.0;1.0;;;;;;;8.6;100.0;99970;;;;
2023/01/08 04:39:00;;;;;;;1.0;1.0;;;;;;;8.6;100.0;99970;;;;
2023/01/08 04:40:00;;;;;;;1.0;1.0;;;;;;;8.6;100.0;99970;;;;
2023/01/08 04:41:01;;;;;;;1.0;1.0;;;;;;;8.6;100.0;99970;;;;
2023/01/08 04:42:00;;;;;;;1.0;1.0;;;;;;;8.6;100.0;99970;;;;
2023/01/08 04:43:00;;;;;;;1.0;1.0;;;;;;;8.6;100.0;99970;;;;
2023/01/08 04:44:00;;;;;;;1.0;1.0;;;;;;;8.5;100.0;99970;;;;
2023/01/08 04:45:00;;;;;;;1.0;1.0;;;;;;;8.5;100.0;99970;;;;
2023/01/08 04:46:01;;;;;;;1.0;1.0;;;;;;;8.6;100.0;99970;;;;
2023/01/08 04:47:00;;;;;;;1.0;1.0;;;;;;;8.6;100.0;99970;;;;
2023/01/08 04:48:00;;;;;;;1.0;1.0;;;;;;;8.5;100.0;99960;;;;
2023/01/08 04:49:00;;;;;;;1.0;1.0;;;;;;;8.5;100.0;99960;;;;
2023/01/08 04:50:00;;;;;;;1.0;1.0;;;;;;;8.6;100.0;99950;;;;
2023/01/08 04:51:01;;;;;;;1.0;1.0;;;;;;;8.6;100.0;99950;;;;
2023/01/08 04:52:00;;;;;;;1.0;1.0;;;;;;;8.6;100.0;99950;;;;
2023/01/08 04:53:00;;;;;;;1.0;1.0;;;;;;;8.6;100.0;99950;;;;
2023/01/08 04:54:00;;;;;;;1.0;1.0;;;;;;;8.6;100.0;99960;;;;
2023/01/08 04:55:00;;;;;;;1.0;1.0;;;;;;;8.6;100.0;99960;;;;
2023/01/08 04:56:02;;;;;;;1.0;1.0;;;;;;;8.5;100.0;99960;;;;
2023/01/08 04:57:00;;;;;;;1.0;1.0;;;;;;;8.5;100.0;99960;;;;
2023/01/08 04:58:00;;;;;;;1.0;1.0;;;;;;;8.5;100.0;99960;;;;
2023/01/08 04:59:00;;;;;;;1.0;1.0;;;;;;;8.5;100.0;99960;;;;
2023/01/08 05:00:00;;;;;;;1.0;1.0;;;;;;;8.5;100.0;99960;;;;
2023/01/08 05:01:00;;;;;;;1.0;1.0;;;;;;;8.5;100.0;99960;;;;
2023/01/08 05:02:00;;;;;;;1.0;1.0;;;;;;;8.5;100.0;99950;;;;
2023/01/08 05:03:00;;;;;;;1.0;1.0;;;;;;;8.5;100.0;99950;;;;
2023/01/08 05:04:01;;;;;;;1.0;1.0;;;;;;;8.5;100.0;99960;;;;
2023/01/08 05:05:00;;;;;;;1.0;1.0;;;;;;;8.5;100.0;99960;;;;
2023/01/08 05:06:00;;;;;;;1.0;1.0;;;;;;;8.5;100.0;99970;;;;
2023/01/08 05:07:00;;;;;;;1.0;1.0;;;;;;;8.5;100.0;99970;;;;
2023/01/08 05:08:00;;;;;;;1.0;1.0;;;;;;;8.6;100.0;99970;;;;
2023/01/08 05:09:00;;;;;;;1.0;1.0;;;;;;;8.6;100.0;99970;;;;
2023/01/08 05:10:00;;;;;;;1.0;1.0;;;;;;;8.5;100.0;99960;;;;
2023/01/08 05:11:00;;;;;;;1.0;1.0;;;;;;;8.5;100.0;99960;;;;
2023/01/08 05:12:00;;;;;;;1.0;1.0;;;;;;;8.5;100.0;99960;;;;
2023/01/08 05:13:00;;;;;;;1.0;1.0;;;;;;;8.5;100.0;99960;;;;
2023/01/08 05:14:00;;;;;;;1.0;1.0;;;;;;;8.5;100.0;99950;;;;
2023/01/08 05:15:00;;;;;;;1.0;1.0;;;;;;;8.5;100.0;99950;;;;
2023/01/08 05:16:00;;;;;;;1.0;1.0;;;;;;;8.4;100.0;99950;;;;
2023/01/08 05:17:00;;;;;;;1.0;1.0;;;;;;;8.4;100.0;99950;;;;
2023/01/08 05:18:01;;;;;;;1.0;1.0;;;;;;;8.5;100.0;99950;;;;
2023/01/08 05:19:00;;;;;;;1.0;1.0;;;;;;;8.5;100.0;99950;;;;
2023/01/08 05:20:00;;;;;;;1.0;1.0;;;;;;;8.6;100.0;99950;;;;
2023/01/08 05:21:01;;;;;;;1.0;1.0;;;;;;;8.6;100.0;99950;;;;
2023/01/08 05:22:00;;;;;;;1.0;1.0;;;;;;;8.6;100.0;99960;;;;
2023/01/08 05:23:00;;;;;;;1.0;1.0;;;;;;;8.6;100.0;99960;;;;
2023/01/08 05:24:00;;;;;;;1.0;1.0;;;;;;;8.5;100.0;99960;;;;
2023/01/08 05:25:00;;;;;;;1.2;1.2;;;;;;;8.5;100.0;99960;;;;
2023/01/08 05:26:01;;;;;;;1.2;1.2;;;;;;;8.5;100.0;99960;;;;
2023/01/08 05:27:00;;;;;;;1.2;1.2;;;;;;;8.5;100.0;99960;;;;
2023/01/08 05:28:00;;;;;;;1.2;1.2;;;;;;;8.5;100.0;99960;;;;
2023/01/08 05:29:00;;;;;;;1.2;1.2;;;;;;;8.5;100.0;99960;;;;
2023/01/08 05:30:00;;;;;;;1.2;1.2;;;;;;;8.4;100.0;99950;;;;
2023/01/08 05:31:00;;;;;;;1.2;1.2;;;;;;;8.4;100.0;99950;;;;
2023/01/08 05:32:00;;;;;;;1.2;1.2;;;;;;;8.4;100.0;99950;;;;
2023/01/08 05:33:00;;;;;;;1.2;1.2;;;;;;;8.4;100.0;99950;;;;
2023/01/08 05:34:00;;;;;;;1.2;1.2;;;;;;;8.4;100.0;99960;;;;
2023/01/08 05:35:00;;;;;;;1.2;1.2;;;;;;;8.4;100.0;99960;;;;
2023/01/08 05:36:02;;;;;;;1.2;1.2;;;;;;;8.4;100.0;99950;;;;
2023/01/08 05:37:00;;;;;;;1.2;1.2;;;;;;;8.4;100.0;99950;;;;
2023/01/08 05:38:00;;;;;;;1.2;1.2;;;;;;;8.4;100.0;99950;;;;
2023/01/08 05:39:00;;;;;;;1.2;1.2;;;;;;;8.4;100.0;99950;;;;
2023/01/08 05:40:00;;;;;;;1.2;1.2;;;;;;;8.4;100.0;99950;;;;
2023/01/08 05:41:00;;;;;;;1.2;1.2;;;;;;;8.4;100.0;99950;;;;
2023/01/08 05:42:00;;;;;;;1.2;1.2;;;;;;;8.4;100.0;99950;;;;
2023/01/08 05:43:00;;;;;;;1.2;1.2;;;;;;;8.4;100.0;99950;;;;
2023/01/08 05:44:00;;;;;;;1.2;1.2;;;;;;;8.3;100.0;99940;;;;
2023/01/08 05:45:01;;;;;;;1.2;1.2;;;;;;;8.3;100.0;99940;;;;
2023/01/08 05:46:01;;;;;;;1.2;1.2;;;;;;;8.4;100.0;99940;;;;
2023/01/08 05:47:00;;;;;;;1.2;1.2;;;;;;;8.4;100.0;99940;;;;
2023/01/08 05:48:03;;;;;;;1.2;1.2;;;;;;;8.4;100.0;99940;;;;
2023/01/08 05:49:00;;;;;;;1.2;1.2;;;;;;;8.4;100.0;99940;;;;
2023/01/08 05:50:00;;;;;;;1.2;1.2;;;;;;;8.3;100.0;99930;;;;
2023/01/08 05:51:00;;;;;;;1.2;1.2;;;;;;;8.3;100.0;99930;;;;
2023/01/08 05:52:00;;;;;;;1.2;1.2;;;;;;;8.4;100.0;99920;;;;
2023/01/08 05:53:00;;;;;;;1.2;1.2;;;;;;;8.4;100.0;99920;;;;
2023/01/08 05:54:00;;;;;;;1.2;1.2;;;;;;;8.4;100.0;99920;;;;
2023/01/08 05:55:00;;;;;;;1.2;1.2;;;;;;;8.4;100.0;99920;;;;
2023/01/08 05:56:01;;;;;;;1.2;1.2;;;;;;;8.5;100.0;99930;;;;
2023/01/08 05:57:00;;;;;;;1.2;1.2;;;;;;;8.5;100.0;99930;;;;
2023/01/08 05:58:01;;;;;;;1.2;1.2;;;;;;;8.4;100.0;99930;;;;
2023/01/08 05:59:00;;;;;;;1.2;1.2;;;;;;;8.4;100.0;99930;;;;
2023/01/08 06:00:00;;;;;;;1.2;1.2;;;;;;;8.4;100.0;99940;;;;
2023/01/08 06:01:02;;;;;;;1.2;1.2;;;;;;;8.4;100.0;99940;;;;
2023/01/08 06:02:00;;;;;;;1.2;1.2;;;;;;;8.4;100.0;99940;;;;
2023/01/08 06:03:00;;;;;;;1.2;1.2;;;;;;;8.4;100.0;99940;;;;
2023/01/08 06:04:00;;;;;;;1.0;1.0;;;;;;;8.3;100.0;99940;;;;
2023/01/08 06:05:00;;;;;;;1.0;1.0;;;;;;;8.3;100.0;99940;;;;
2023/01/08 06:06:01;;;;;;;1.0;1.0;;;;;;;8.4;100.0;99940;;;;
2023/01/08 06:07:00;;;;;;;1.0;1.0;;;;;;;8.4;100.0;99940;;;;
2023/01/08 06:08:00;;;;;;;1.0;1.0;;;;;;;8.3;100.0;99940;;;;
2023/01/08 06:09:00;;;;;;;1.0;1.0;;;;;;;8.3;100.0;99940;;;;
2023/01/08 06:10:00;;;;;;;1.0;1.0;;;;;;;8.2;100.0;99940;;;;
2023/01/08 06:11:01;;;;;;;1.0;1.0;;;;;;;8.2;100.0;99940;;;;
2023/01/08 06:12:00;;;;;;;1.0;1.0;;;;;;;8.2;100.0;99940;;;;
2023/01/08 06:13:00;;;;;;;1.0;1.0;;;;;;;8.2;100.0;99940;;;;
2023/01/08 06:14:00;;;;;;;1.0;1.0;;;;;;;8.2;100.0;99950;;;;
2023/01/08 06:15:00;;;;;;;1.0;1.0;;;;;;;8.2;100.0;99950;;;;
2023/01/08 06:16:00;;;;;;;1.0;1.0;;;;;;;8.1;100.0;99950;;;;
2023/01/08 06:17:00;;;;;;;1.0;1.0;;;;;;;8.1;100.0;99950;;;;
2023/01/08 06:18:02;;;;;;;1.0;1.0;;;;;;;8.0;100.0;99950;;;;
2023/01/08 06:19:00;;;;;;;1.0;1.0;;;;;;;8.0;100.0;99950;;;;
2023/01/08 06:20:00;;;;;;;1.0;1.0;;;;;;;8.0;100.0;99950;;;;
2023/01/08 06:21:00;;;;;;;1.0;1.0;;;;;;;8.0;100.0;99950;;;;
2023/01/08 06:22:00;;;;;;;1.0;1.0;;;;;;;8.0;100.0;99960;;;;
2023/01/08 06:23:00;;;;;;;1.0;1.0;;;;;;;8.0;100.0;99960;;;;
2023/01/08 06:24:00;;;;;;;1.0;1.0;;;;;;;8.0;100.0;99970;;;;
2023/01/08 06:25:00;;;;;;;1.0;1.0;;;;;;;8.0;100.0;99970;;;;
2023/01/08 06:26:02;;;;;;;1.0;1.0;;;;;;;7.9;100.0;99980;;;;
2023/01/08 06:27:00;;;;;;;1.0;1.0;;;;;;;7.9;100.0;99980;;;;
2023/01/08 06:28:00;;;;;;;1.0;1.0;;;;;;;7.9;100.0;99980;;;;
2023/01/08 06:29:00;;;;;;;1.0;1.0;;;;;;;7.9;100.0;99980;;;;
2023/01/08 06:30:00;;;;;;;1.0;1.0;;;;;;;7.9;100.0;99980;;;;
2023/01/08 06:31:01;;;;;;;1.0;1.0;;;;;;;7.9;100.0;99980;;;;